sensor_id;sensor_type;location;lat;lon;timestamp;pressure;altitude;pressure_sealevel;temperature;humidity
16777;BME280;8505;49.456;8.164;2023-08-07T00:02:26;99549.25;;;12.53;85.20
16777;BME280;8505;49.456;8.164;2023-08-07T00:04:54;99548.44;;;12.53;85.50
16777;BME280;8505;49.456;8.164;2023-08-07T00:07:21;99546.41;;;12.55;85.06
16777;BME280;8505;49.456;8.164;2023-08-07T00:09:51;99559.53;;;12.56;84.94
16777;BME280;8505;49.456;8.164;2023-08-07T00:12:18;99551.91;;;12.53;84.70
16777;BME280;8505;49.456;8.164;2023-08-07T00:14:49;99546.66;;;12.60;84.67
16777;BME280;8505;49.456;8.164;2023-08-07T00:17:17;99552.13;;;12.52;84.48
16777;BME280;8505;49.456;8.164;2023-08-07T00:19:45;99547.00;;;12.50;84.22
16777;BME280;8505;49.456;8.164;2023-08-07T00:22:13;99540.28;;;12.54;84.33
16777;BME280;8505;49.456;8.164;2023-08-07T00:24:41;99548.44;;;12.53;83.75
16777;BME280;8505;49.456;8.164;2023-08-07T00:27:08;99550.84;;;12.48;84.05
16777;BME280;8505;49.456;8.164;2023-08-07T00:29:37;99550.47;;;12.51;84.03
16777;BME280;8505;49.456;8.164;2023-08-07T00:32:07;99547.81;;;12.51;83.43
16777;BME280;8505;49.456;8.164;2023-08-07T00:34:35;99543.13;;;12.53;83.58
16777;BME280;8505;49.456;8.164;2023-08-07T00:37:02;99540.47;;;12.53;83.49
16777;BME280;8505;49.456;8.164;2023-08-07T00:39:30;99543.50;;;12.50;83.24
16777;BME280;8505;49.456;8.164;2023-08-07T00:41:58;99531.41;;;12.47;83.26
16777;BME280;8505;49.456;8.164;2023-08-07T00:44:26;99539.84;;;12.51;83.06
16777;BME280;8505;49.456;8.164;2023-08-07T00:46:53;99543.44;;;12.43;83.16
16777;BME280;8505;49.456;8.164;2023-08-07T00:49:23;99548.19;;;12.48;83.01
16777;BME280;8505;49.456;8.164;2023-08-07T00:51:51;99553.06;;;12.44;82.98
16777;BME280;8505;49.456;8.164;2023-08-07T00:54:20;99542.59;;;12.43;83.29
16777;BME280;8505;49.456;8.164;2023-08-07T00:56:48;99538.78;;;12.45;82.71
16777;BME280;8505;49.456;8.164;2023-08-07T00:59:16;99540.97;;;12.42;82.92
16777;BME280;8505;49.456;8.164;2023-08-07T01:01:44;99543.00;;;12.40;82.83
16777;BME280;8505;49.456;8.164;2023-08-07T01:04:12;99536.41;;;12.36;82.81
16777;BME280;8505;49.456;8.164;2023-08-07T01:06:41;99547.50;;;12.39;82.66
16777;BME280;8505;49.456;8.164;2023-08-07T01:09:09;99546.19;;;12.35;82.95
16777;BME280;8505;49.456;8.164;2023-08-07T01:11:43;99552.72;;;12.33;83.17
16777;BME280;8505;49.456;8.164;2023-08-07T01:14:19;99557.38;;;12.31;82.89
16777;BME280;8505;49.456;8.164;2023-08-07T01:16:50;99547.03;;;12.36;83.06
16777;BME280;8505;49.456;8.164;2023-08-07T01:19:23;99544.50;;;12.28;83.61
16777;BME280;8505;49.456;8.164;2023-08-07T01:22:05;99550.44;;;12.30;83.83
16777;BME280;8505;49.456;8.164;2023-08-07T01:24:33;99546.75;;;12.31;83.44
16777;BME280;8505;49.456;8.164;2023-08-07T01:27:07;99549.44;;;12.31;82.93
16777;BME280;8505;49.456;8.164;2023-08-07T01:29:42;99550.00;;;12.26;83.31
16777;BME280;8505;49.456;8.164;2023-08-07T01:32:15;99553.84;;;12.24;83.40
16777;BME280;8505;49.456;8.164;2023-08-07T01:34:47;99543.97;;;12.18;83.58
16777;BME280;8505;49.456;8.164;2023-08-07T01:37:17;99547.06;;;12.21;83.14
16777;BME280;8505;49.456;8.164;2023-08-07T01:39:46;99545.59;;;12.19;83.18
16777;BME280;8505;49.456;8.164;2023-08-07T01:42:14;99555.56;;;12.31;82.94
16777;BME280;8505;49.456;8.164;2023-08-07T01:44:42;99550.59;;;12.28;82.89
16777;BME280;8505;49.456;8.164;2023-08-07T01:47:10;99559.06;;;12.17;82.83
16777;BME280;8505;49.456;8.164;2023-08-07T01:49:38;99556.47;;;12.24;82.59
16777;BME280;8505;49.456;8.164;2023-08-07T01:52:08;99558.97;;;12.25;82.80
16777;BME280;8505;49.456;8.164;2023-08-07T01:54:39;99554.56;;;12.18;82.63
16777;BME280;8505;49.456;8.164;2023-08-07T01:57:06;99553.75;;;12.17;82.87
16777;BME280;8505;49.456;8.164;2023-08-07T01:59:34;99555.97;;;12.13;83.19
16777;BME280;8505;49.456;8.164;2023-08-07T02:02:02;99569.50;;;12.19;82.88
16777;BME280;8505;49.456;8.164;2023-08-07T02:04:30;99552.84;;;12.10;83.10
16777;BME280;8505;49.456;8.164;2023-08-07T02:06:58;99558.97;;;12.10;83.41
16777;BME280;8505;49.456;8.164;2023-08-07T02:09:26;99567.59;;;12.12;82.94
16777;BME280;8505;49.456;8.164;2023-08-07T02:11:55;99567.66;;;12.19;82.67
16777;BME280;8505;49.456;8.164;2023-08-07T02:14:23;99561.91;;;12.15;82.67
16777;BME280;8505;49.456;8.164;2023-08-07T02:16:50;99561.91;;;12.15;83.17
16777;BME280;8505;49.456;8.164;2023-08-07T02:19:46;99558.53;;;12.07;83.13
16777;BME280;8505;49.456;8.164;2023-08-07T02:22:13;99569.25;;;12.13;83.26
16777;BME280;8505;49.456;8.164;2023-08-07T02:24:41;99565.31;;;12.09;83.57
16777;BME280;8505;49.456;8.164;2023-08-07T02:27:10;99565.75;;;12.13;83.76
16777;BME280;8505;49.456;8.164;2023-08-07T02:29:38;99564.56;;;12.15;83.33
16777;BME280;8505;49.456;8.164;2023-08-07T02:32:06;99564.56;;;12.15;83.04
16777;BME280;8505;49.456;8.164;2023-08-07T02:34:34;99564.94;;;12.12;83.32
16777;BME280;8505;49.456;8.164;2023-08-07T02:37:02;99566.41;;;12.15;83.13
16777;BME280;8505;49.456;8.164;2023-08-07T02:39:30;99569.50;;;12.19;83.18
16777;BME280;8505;49.456;8.164;2023-08-07T02:41:58;99567.22;;;12.15;83.72
16777;BME280;8505;49.456;8.164;2023-08-07T02:44:27;99571.16;;;12.20;82.98
16777;BME280;8505;49.456;8.164;2023-08-07T02:46:54;99569.69;;;12.17;83.44
16777;BME280;8505;49.456;8.164;2023-08-07T02:49:23;99567.59;;;12.12;83.71
16777;BME280;8505;49.456;8.164;2023-08-07T02:51:51;99565.38;;;12.16;83.94
16777;BME280;8505;49.456;8.164;2023-08-07T02:54:18;99561.72;;;12.17;83.60
16777;BME280;8505;49.456;8.164;2023-08-07T02:56:46;99566.84;;;12.19;83.57
16777;BME280;8505;49.456;8.164;2023-08-07T02:59:15;99565.19;;;12.18;83.37
16777;BME280;8505;49.456;8.164;2023-08-07T03:01:44;99564.44;;;12.24;83.16
16777;BME280;8505;49.456;8.164;2023-08-07T03:04:12;99566.66;;;12.20;83.03
16777;BME280;8505;49.456;8.164;2023-08-07T03:06:40;99572.41;;;12.24;82.71
16777;BME280;8505;49.456;8.164;2023-08-07T03:09:07;99555.03;;;12.21;82.49
16777;BME280;8505;49.456;8.164;2023-08-07T03:11:35;99553.47;;;12.27;82.61
16777;BME280;8505;49.456;8.164;2023-08-07T03:14:03;99563.19;;;12.20;82.35
16777;BME280;8505;49.456;8.164;2023-08-07T03:16:30;99555.66;;;12.23;82.75
16777;BME280;8505;49.456;8.164;2023-08-07T03:18:59;99560.16;;;12.23;82.69
16777;BME280;8505;49.456;8.164;2023-08-07T03:21:27;99566.84;;;12.19;82.59
16777;BME280;8505;49.456;8.164;2023-08-07T03:23:55;99563.53;;;12.16;82.82
16777;BME280;8505;49.456;8.164;2023-08-07T03:26:22;99557.06;;;12.19;82.91
16777;BME280;8505;49.456;8.164;2023-08-07T03:28:50;99554.13;;;12.14;82.91
16777;BME280;8505;49.456;8.164;2023-08-07T03:31:18;99561.34;;;12.20;82.86
16777;BME280;8505;49.456;8.164;2023-08-07T03:33:46;99564.84;;;12.21;82.63
16777;BME280;8505;49.456;8.164;2023-08-07T03:36:15;99556.22;;;12.19;82.52
16777;BME280;8505;49.456;8.164;2023-08-07T03:38:42;99564.38;;;12.17;82.87
16777;BME280;8505;49.456;8.164;2023-08-07T03:41:10;99564.84;;;12.21;82.65
16777;BME280;8505;49.456;8.164;2023-08-07T03:43:38;99558.22;;;12.16;82.40
16777;BME280;8505;49.456;8.164;2023-08-07T03:46:05;99569.16;;;12.22;82.54
16777;BME280;8505;49.456;8.164;2023-08-07T03:48:33;99557.50;;;12.23;82.43
16777;BME280;8505;49.456;8.164;2023-08-07T03:51:03;99556.22;;;12.19;82.57
16777;BME280;8505;49.456;8.164;2023-08-07T03:53:33;99558.69;;;12.20;82.44
16777;BME280;8505;49.456;8.164;2023-08-07T03:56:00;99558.69;;;12.20;82.62
16777;BME280;8505;49.456;8.164;2023-08-07T03:58:29;99553.75;;;12.17;82.67
16777;BME280;8505;49.456;8.164;2023-08-07T04:00:56;99552.75;;;12.18;82.35
16777;BME280;8505;49.456;8.164;2023-08-07T04:03:24;99558.69;;;12.20;81.90
16777;BME280;8505;49.456;8.164;2023-08-07T04:05:52;99552.19;;;12.23;81.80
16777;BME280;8505;49.456;8.164;2023-08-07T04:08:20;99556.31;;;12.25;81.42
16777;BME280;8505;49.456;8.164;2023-08-07T04:10:59;99556.31;;;12.25;81.56
16777;BME280;8505;49.456;8.164;2023-08-07T04:13:28;99565.75;;;12.28;81.52
16777;BME280;8505;49.456;8.164;2023-08-07T04:15:56;99564.72;;;12.29;82.15
16777;BME280;8505;49.456;8.164;2023-08-07T04:18:24;99552.81;;;12.25;81.88
16777;BME280;8505;49.456;8.164;2023-08-07T04:20:53;99561.78;;;12.24;81.78
16777;BME280;8505;49.456;8.164;2023-08-07T04:23:21;99563.63;;;12.23;81.90
16777;BME280;8505;49.456;8.164;2023-08-07T04:25:49;99566.66;;;12.20;82.10
16777;BME280;8505;49.456;8.164;2023-08-07T04:28:18;99560.53;;;12.20;82.66
16777;BME280;8505;49.456;8.164;2023-08-07T04:30:49;99563.19;;;12.20;82.17
16777;BME280;8505;49.456;8.164;2023-08-07T04:33:17;99556.66;;;12.22;82.47
16777;BME280;8505;49.456;8.164;2023-08-07T04:35:45;99569.41;;;12.27;82.34
16777;BME280;8505;49.456;8.164;2023-08-07T04:38:14;99563.19;;;12.20;82.59
16777;BME280;8505;49.456;8.164;2023-08-07T04:40:45;99564.00;;;12.20;82.14
16777;BME280;8505;49.456;8.164;2023-08-07T04:43:13;99563.19;;;12.20;82.40
16777;BME280;8505;49.456;8.164;2023-08-07T04:45:42;99577.53;;;12.25;81.88
16777;BME280;8505;49.456;8.164;2023-08-07T04:48:12;99574.50;;;12.28;81.40
16777;BME280;8505;49.456;8.164;2023-08-07T04:50:40;99575.97;;;12.31;81.74
16777;BME280;8505;49.456;8.164;2023-08-07T04:53:07;99580.84;;;12.27;81.83
16777;BME280;8505;49.456;8.164;2023-08-07T04:55:35;99571.41;;;12.25;81.75
16777;BME280;8505;49.456;8.164;2023-08-07T04:58:03;99602.16;;;12.34;81.39
16777;BME280;8505;49.456;8.164;2023-08-07T05:00:31;99591.09;;;12.30;81.50
16777;BME280;8505;49.456;8.164;2023-08-07T05:03:00;99580.09;;;12.33;81.10
16777;BME280;8505;49.456;8.164;2023-08-07T05:05:28;99603.78;;;12.35;81.28
16777;BME280;8505;49.456;8.164;2023-08-07T05:07:57;99594.00;;;12.35;81.36
16777;BME280;8505;49.456;8.164;2023-08-07T05:10:25;99596.22;;;12.32;81.55
16777;BME280;8505;49.456;8.164;2023-08-07T05:12:53;99595.81;;;12.35;81.72
16777;BME280;8505;49.456;8.164;2023-08-07T05:15:22;99601.13;;;12.35;81.17
16777;BME280;8505;49.456;8.164;2023-08-07T05:17:51;99607.47;;;12.34;81.02
16777;BME280;8505;49.456;8.164;2023-08-07T05:20:20;99604.69;;;12.42;81.08
16777;BME280;8505;49.456;8.164;2023-08-07T05:22:48;99613.06;;;12.39;80.81
16777;BME280;8505;49.456;8.164;2023-08-07T05:25:17;99619.19;;;12.39;80.44
16777;BME280;8505;49.456;8.164;2023-08-07T05:27:45;99620.28;;;12.45;80.39
16777;BME280;8505;49.456;8.164;2023-08-07T05:30:13;99619.88;;;12.48;80.04
16777;BME280;8505;49.456;8.164;2023-08-07T05:32:41;99619.53;;;12.51;80.40
16777;BME280;8505;49.456;8.164;2023-08-07T05:35:09;99623.28;;;12.42;80.43
16777;BME280;8505;49.456;8.164;2023-08-07T05:37:38;99622.81;;;12.53;79.73
16777;BME280;8505;49.456;8.164;2023-08-07T05:40:07;99630.16;;;12.51;79.90
16777;BME280;8505;49.456;8.164;2023-08-07T05:42:35;99634.06;;;12.55;79.76
16777;BME280;8505;49.456;8.164;2023-08-07T05:45:04;99630.59;;;12.54;79.57
16777;BME280;8505;49.456;8.164;2023-08-07T05:47:32;99628.94;;;12.53;79.34
16777;BME280;8505;49.456;8.164;2023-08-07T05:50:00;99631.81;;;12.52;79.58
16777;BME280;8505;49.456;8.164;2023-08-07T05:52:28;99633.06;;;12.56;79.07
16777;BME280;8505;49.456;8.164;2023-08-07T05:54:57;99637.19;;;12.59;79.10
16777;BME280;8505;49.456;8.164;2023-08-07T05:57:25;99634.72;;;12.57;79.07
16777;BME280;8505;49.456;8.164;2023-08-07T05:59:53;99638.66;;;12.61;78.48
16777;BME280;8505;49.456;8.164;2023-08-07T06:02:20;99637.16;;;12.73;78.54
16777;BME280;8505;49.456;8.164;2023-08-07T06:04:48;99644.03;;;12.68;78.35
16777;BME280;8505;49.456;8.164;2023-08-07T06:07:16;99644.22;;;12.66;78.19
16777;BME280;8505;49.456;8.164;2023-08-07T06:09:43;99649.00;;;12.71;78.66
16777;BME280;8505;49.456;8.164;2023-08-07T06:12:12;99644.03;;;12.68;78.07
16777;BME280;8505;49.456;8.164;2023-08-07T06:14:40;99653.00;;;12.67;78.03
16777;BME280;8505;49.456;8.164;2023-08-07T06:17:08;99647.91;;;12.65;77.92
16777;BME280;8505;49.456;8.164;2023-08-07T06:19:35;99657.13;;;12.69;78.01
16777;BME280;8505;49.456;8.164;2023-08-07T06:22:04;99662.44;;;12.69;77.80
16777;BME280;8505;49.456;8.164;2023-08-07T06:24:31;99660.06;;;12.74;77.77
16777;BME280;8505;49.456;8.164;2023-08-07T06:26:59;99658.41;;;12.73;77.76
16777;BME280;8505;49.456;8.164;2023-08-07T06:29:28;99665.75;;;12.71;77.75
16777;BME280;8505;49.456;8.164;2023-08-07T06:31:56;99669.03;;;12.73;77.89
16777;BME280;8505;49.456;8.164;2023-08-07T06:34:24;99662.97;;;12.79;77.52
16777;BME280;8505;49.456;8.164;2023-08-07T06:36:52;99675.63;;;12.77;77.40
16777;BME280;8505;49.456;8.164;2023-08-07T06:39:19;99682.84;;;12.83;77.00
16777;BME280;8505;49.456;8.164;2023-08-07T06:41:47;99680.75;;;12.79;76.94
16777;BME280;8505;49.456;8.164;2023-08-07T06:44:15;99687.97;;;12.85;76.94
16777;BME280;8505;49.456;8.164;2023-08-07T06:46:44;99682.22;;;12.81;76.98
16777;BME280;8505;49.456;8.164;2023-08-07T06:49:11;99691.34;;;12.93;76.74
16777;BME280;8505;49.456;8.164;2023-08-07T06:51:39;99705.47;;;12.94;76.86
16777;BME280;8505;49.456;8.164;2023-08-07T06:54:07;99687.28;;;12.97;76.59
16777;BME280;8505;49.456;8.164;2023-08-07T06:56:34;99705.91;;;12.97;76.83
16777;BME280;8505;49.456;8.164;2023-08-07T06:59:04;99697.75;;;12.99;76.44
16777;BME280;8505;49.456;8.164;2023-08-07T07:01:32;99701.59;;;12.96;76.84
16777;BME280;8505;49.456;8.164;2023-08-07T07:04:01;99702.50;;;13.04;76.42
16777;BME280;8505;49.456;8.164;2023-08-07T07:06:30;99713.38;;;13.09;76.26
16777;BME280;8505;49.456;8.164;2023-08-07T07:08:58;99712.75;;;13.07;76.56
16777;BME280;8505;49.456;8.164;2023-08-07T07:11:26;99716.53;;;13.12;76.08
16777;BME280;8505;49.456;8.164;2023-08-07T07:13:53;99711.88;;;13.14;76.21
16777;BME280;8505;49.456;8.164;2023-08-07T07:16:21;99713.13;;;13.18;75.92
16777;BME280;8505;49.456;8.164;2023-08-07T07:18:49;99723.66;;;13.26;75.48
16777;BME280;8505;49.456;8.164;2023-08-07T07:21:18;99736.25;;;13.39;75.09
16777;BME280;8505;49.456;8.164;2023-08-07T07:23:46;99738.66;;;13.55;74.93
16777;BME280;8505;49.456;8.164;2023-08-07T07:26:14;99739.22;;;13.51;74.34
16777;BME280;8505;49.456;8.164;2023-08-07T07:28:42;99740.81;;;13.45;74.46
16777;BME280;8505;49.456;8.164;2023-08-07T07:31:09;99741.06;;;13.50;74.28
16777;BME280;8505;49.456;8.164;2023-08-07T07:33:38;99740.75;;;13.60;73.98
16777;BME280;8505;49.456;8.164;2023-08-07T07:36:14;99747.91;;;13.59;73.60
16777;BME280;8505;49.456;8.164;2023-08-07T07:38:45;99754.63;;;13.55;73.52
16777;BME280;8505;49.456;8.164;2023-08-07T07:41:13;99763.09;;;13.65;72.77
16777;BME280;8505;49.456;8.164;2023-08-07T07:43:41;99759.00;;;13.63;73.64
16777;BME280;8505;49.456;8.164;2023-08-07T07:46:09;99761.56;;;13.77;73.21
16777;BME280;8505;49.456;8.164;2023-08-07T07:48:37;99766.66;;;13.72;72.95
16777;BME280;8505;49.456;8.164;2023-08-07T07:51:05;99772.22;;;13.77;72.85
16777;BME280;8505;49.456;8.164;2023-08-07T07:53:32;99782.25;;;13.75;72.75
16777;BME280;8505;49.456;8.164;2023-08-07T07:56:02;99787.13;;;13.72;72.66
16777;BME280;8505;49.456;8.164;2023-08-07T07:58:29;99781.28;;;13.83;72.59
16777;BME280;8505;49.456;8.164;2023-08-07T08:00:57;99782.25;;;13.75;71.73
16777;BME280;8505;49.456;8.164;2023-08-07T08:03:25;99781.22;;;13.76;72.47
16777;BME280;8505;49.456;8.164;2023-08-07T08:05:54;99780.03;;;13.79;72.21
16777;BME280;8505;49.456;8.164;2023-08-07T08:08:21;99771.84;;;13.81;72.71
16777;BME280;8505;49.456;8.164;2023-08-07T08:10:52;99779.97;;;13.94;71.74
16777;BME280;8505;49.456;8.164;2023-08-07T08:13:21;99776.72;;;13.98;71.26
16777;BME280;8505;49.456;8.164;2023-08-07T08:15:49;99776.13;;;14.03;71.81
16777;BME280;8505;49.456;8.164;2023-08-07T08:18:17;99782.81;;;14.20;70.84
16777;BME280;8505;49.456;8.164;2023-08-07T08:20:44;99781.13;;;14.12;70.29
16777;BME280;8505;49.456;8.164;2023-08-07T08:23:12;99777.44;;;14.13;70.16
16777;BME280;8505;49.456;8.164;2023-08-07T08:25:40;99777.47;;;14.20;70.42
16777;BME280;8505;49.456;8.164;2023-08-07T08:28:08;99787.66;;;14.10;69.64
16777;BME280;8505;49.456;8.164;2023-08-07T08:30:37;99789.59;;;14.23;69.42
16777;BME280;8505;49.456;8.164;2023-08-07T08:33:05;99797.88;;;14.34;69.19
16777;BME280;8505;49.456;8.164;2023-08-07T08:35:32;99779.72;;;14.38;69.26
16777;BME280;8505;49.456;8.164;2023-08-07T08:38:00;99793.56;;;14.33;69.11
16777;BME280;8505;49.456;8.164;2023-08-07T08:40:30;99793.56;;;14.54;68.19
16777;BME280;8505;49.456;8.164;2023-08-07T08:43:00;99799.94;;;14.60;68.38
16777;BME280;8505;49.456;8.164;2023-08-07T08:45:29;99812.06;;;14.69;68.00
16777;BME280;8505;49.456;8.164;2023-08-07T08:48:03;99806.81;;;14.82;67.85
16777;BME280;8505;49.456;8.164;2023-08-07T08:50:32;99810.50;;;14.75;66.99
16777;BME280;8505;49.456;8.164;2023-08-07T08:53:02;99812.56;;;14.79;67.04
16777;BME280;8505;49.456;8.164;2023-08-07T08:55:30;99816.94;;;14.93;66.97
16777;BME280;8505;49.456;8.164;2023-08-07T08:57:59;99812.22;;;14.95;67.05
16777;BME280;8505;49.456;8.164;2023-08-07T09:00:27;99821.63;;;14.85;66.77
16777;BME280;8505;49.456;8.164;2023-08-07T09:02:57;99826.19;;;14.97;66.66
16777;BME280;8505;49.456;8.164;2023-08-07T09:05:27;99820.25;;;15.02;66.14
16777;BME280;8505;49.456;8.164;2023-08-07T09:07:55;99820.31;;;15.15;66.23
16777;BME280;8505;49.456;8.164;2023-08-07T09:10:24;99821.59;;;15.26;65.70
16777;BME280;8505;49.456;8.164;2023-08-07T09:12:55;99820.72;;;15.12;65.07
16777;BME280;8505;49.456;8.164;2023-08-07T09:15:24;99824.88;;;15.21;65.30
16777;BME280;8505;49.456;8.164;2023-08-07T09:17:54;99828.97;;;15.17;65.49
16777;BME280;8505;49.456;8.164;2023-08-07T09:20:22;99810.53;;;15.29;65.16
16777;BME280;8505;49.456;8.164;2023-08-07T09:22:51;99819.38;;;15.29;65.23
16777;BME280;8505;49.456;8.164;2023-08-07T09:25:27;99811.78;;;15.33;64.98
16777;BME280;8505;49.456;8.164;2023-08-07T09:27:55;99811.75;;;15.26;65.21
16777;BME280;8505;49.456;8.164;2023-08-07T09:30:26;99814.06;;;15.36;65.60
16777;BME280;8505;49.456;8.164;2023-08-07T09:32:56;99819.41;;;15.49;66.72
16777;BME280;8505;49.456;8.164;2023-08-07T09:35:24;99814.00;;;15.23;67.04
16777;BME280;8505;49.456;8.164;2023-08-07T09:37:53;99821.00;;;15.30;68.53
16777;BME280;8505;49.456;8.164;2023-08-07T09:40:21;99829.03;;;15.44;69.02
16777;BME280;8505;49.456;8.164;2023-08-07T09:42:50;99831.41;;;15.60;69.82
16777;BME280;8505;49.456;8.164;2023-08-07T09:45:21;99833.56;;;15.36;67.88
16777;BME280;8505;49.456;8.164;2023-08-07T09:47:58;99820.38;;;15.28;67.40
16777;BME280;8505;49.456;8.164;2023-08-07T09:50:27;99818.88;;;15.13;68.19
16777;BME280;8505;49.456;8.164;2023-08-07T09:52:56;99833.56;;;15.36;68.69
16777;BME280;8505;49.456;8.164;2023-08-07T09:55:24;99831.00;;;15.15;69.53
16777;BME280;8505;49.456;8.164;2023-08-07T09:57:52;99826.16;;;15.38;67.20
16777;BME280;8505;49.456;8.164;2023-08-07T10:00:21;99822.91;;;15.50;67.15
16777;BME280;8505;49.456;8.164;2023-08-07T10:02:50;99832.81;;;15.56;66.43
16777;BME280;8505;49.456;8.164;2023-08-07T10:05:18;99826.47;;;15.63;66.23
16777;BME280;8505;49.456;8.164;2023-08-07T10:07:47;99821.34;;;15.75;65.24
16777;BME280;8505;49.456;8.164;2023-08-07T10:10:17;99835.94;;;15.72;64.64
16777;BME280;8505;49.456;8.164;2023-08-07T10:12:44;99832.47;;;15.85;64.79
16777;BME280;8505;49.456;8.164;2023-08-07T10:15:14;99834.75;;;16.14;64.41
16777;BME280;8505;49.456;8.164;2023-08-07T10:17:42;99833.75;;;16.09;62.68
16777;BME280;8505;49.456;8.164;2023-08-07T10:20:11;99835.78;;;16.33;62.56
16777;BME280;8505;49.456;8.164;2023-08-07T10:22:40;99835.59;;;16.35;61.17
16777;BME280;8505;49.456;8.164;2023-08-07T10:25:08;99830.88;;;16.63;60.33
16777;BME280;8505;49.456;8.164;2023-08-07T10:27:39;99851.81;;;16.73;60.32
16777;BME280;8505;49.456;8.164;2023-08-07T10:30:10;99849.34;;;16.91;59.26
16777;BME280;8505;49.456;8.164;2023-08-07T10:32:40;99855.09;;;16.81;59.57
16777;BME280;8505;49.456;8.164;2023-08-07T10:35:09;99863.31;;;16.80;58.97
16777;BME280;8505;49.456;8.164;2023-08-07T10:37:41;99846.09;;;16.63;58.68
16777;BME280;8505;49.456;8.164;2023-08-07T10:40:10;99847.28;;;16.80;58.40
16777;BME280;8505;49.456;8.164;2023-08-07T10:42:59;99852.63;;;16.86;58.46
16777;BME280;8505;49.456;8.164;2023-08-07T10:45:28;99851.44;;;16.63;58.34
16777;BME280;8505;49.456;8.164;2023-08-07T10:48:05;99867.03;;;16.85;57.86
16777;BME280;8505;49.456;8.164;2023-08-07T10:50:35;99852.19;;;16.96;56.98
16777;BME280;8505;49.456;8.164;2023-08-07T10:53:03;99868.41;;;17.21;56.89
16777;BME280;8505;49.456;8.164;2023-08-07T10:55:40;99857.53;;;17.09;57.88
16777;BME280;8505;49.456;8.164;2023-08-07T10:58:22;99862.03;;;17.15;56.76
16777;BME280;8505;49.456;8.164;2023-08-07T11:00:52;99858.75;;;17.00;57.25
16777;BME280;8505;49.456;8.164;2023-08-07T11:03:26;99872.47;;;17.30;55.53
16777;BME280;8505;49.456;8.164;2023-08-07T11:05:57;99860.44;;;17.52;56.27
16777;BME280;8505;49.456;8.164;2023-08-07T11:08:25;99855.69;;;17.54;56.06
16777;BME280;8505;49.456;8.164;2023-08-07T11:10:56;99871.75;;;17.54;54.81
16777;BME280;8505;49.456;8.164;2023-08-07T11:13:29;99863.50;;;17.62;54.25
16777;BME280;8505;49.456;8.164;2023-08-07T11:15:57;99862.75;;;17.87;54.77
16777;BME280;8505;49.456;8.164;2023-08-07T11:18:25;99871.03;;;18.10;53.48
16777;BME280;8505;49.456;8.164;2023-08-07T11:20:54;99866.53;;;18.35;52.55
16777;BME280;8505;49.456;8.164;2023-08-07T11:23:23;99859.25;;;18.17;52.10
16777;BME280;8505;49.456;8.164;2023-08-07T11:25:51;99862.44;;;18.33;51.88
16777;BME280;8505;49.456;8.164;2023-08-07T11:28:19;99846.22;;;18.21;51.40
16777;BME280;8505;49.456;8.164;2023-08-07T11:30:50;99858.78;;;18.45;50.92
16777;BME280;8505;49.456;8.164;2023-08-07T11:33:18;99856.34;;;18.44;49.45
16777;BME280;8505;49.456;8.164;2023-08-07T11:35:47;99854.19;;;18.52;49.47
16777;BME280;8505;49.456;8.164;2023-08-07T11:38:28;99846.81;;;18.73;49.32
16777;BME280;8505;49.456;8.164;2023-08-07T11:40:57;99853.09;;;19.39;47.58
16777;BME280;8505;49.456;8.164;2023-08-07T11:43:27;99844.16;;;20.05;46.75
16777;BME280;8505;49.456;8.164;2023-08-07T11:45:57;99840.84;;;20.45;45.29
16777;BME280;8505;49.456;8.164;2023-08-07T11:48:25;99846.13;;;20.51;46.20
16777;BME280;8505;49.456;8.164;2023-08-07T11:50:54;99839.56;;;20.36;44.39
16777;BME280;8505;49.456;8.164;2023-08-07T11:53:23;99855.41;;;20.26;45.05
16777;BME280;8505;49.456;8.164;2023-08-07T11:55:52;99842.72;;;20.56;44.39
16777;BME280;8505;49.456;8.164;2023-08-07T11:58:21;99837.41;;;21.08;43.39
16777;BME280;8505;49.456;8.164;2023-08-07T12:00:49;99845.69;;;20.25;43.90
16777;BME280;8505;49.456;8.164;2023-08-07T12:03:26;99831.84;;;20.74;44.38
16777;BME280;8505;49.456;8.164;2023-08-07T12:05:56;99830.72;;;21.33;43.00
16777;BME280;8505;49.456;8.164;2023-08-07T12:08:25;99815.72;;;21.66;41.55
16777;BME280;8505;49.456;8.164;2023-08-07T12:11:00;99826.91;;;21.74;40.42
16777;BME280;8505;49.456;8.164;2023-08-07T12:13:28;99824.69;;;20.68;40.91
16777;BME280;8505;49.456;8.164;2023-08-07T12:15:57;99821.91;;;21.38;39.96
16777;BME280;8505;49.456;8.164;2023-08-07T12:18:27;99824.88;;;21.25;40.06
16777;BME280;8505;49.456;8.164;2023-08-07T12:20:59;99829.03;;;20.81;40.89
16777;BME280;8505;49.456;8.164;2023-08-07T12:23:27;99841.53;;;20.98;40.38
16777;BME280;8505;49.456;8.164;2023-08-07T12:25:55;99836.28;;;20.57;40.40
16777;BME280;8505;49.456;8.164;2023-08-07T12:28:23;99817.66;;;21.02;40.66
16777;BME280;8505;49.456;8.164;2023-08-07T12:30:51;99821.06;;;21.77;40.26
16777;BME280;8505;49.456;8.164;2023-08-07T12:33:19;99815.47;;;21.96;38.97
16777;BME280;8505;49.456;8.164;2023-08-07T12:35:48;99829.56;;;22.14;38.83
16777;BME280;8505;49.456;8.164;2023-08-07T12:38:16;99836.28;;;21.04;39.90
16777;BME280;8505;49.456;8.164;2023-08-07T12:40:44;99832.44;;;20.76;40.09
16777;BME280;8505;49.456;8.164;2023-08-07T12:43:11;99833.00;;;21.53;39.61
16777;BME280;8505;49.456;8.164;2023-08-07T12:45:39;99835.72;;;21.70;37.42
16777;BME280;8505;49.456;8.164;2023-08-07T12:48:10;99825.78;;;21.70;37.66
16777;BME280;8505;49.456;8.164;2023-08-07T12:50:38;99834.34;;;21.39;37.87
16777;BME280;8505;49.456;8.164;2023-08-07T12:53:08;99830.69;;;21.45;38.49
16777;BME280;8505;49.456;8.164;2023-08-07T13:58:45;99841.28;;;22.92;34.65
16777;BME280;8505;49.456;8.164;2023-08-07T14:01:13;99840.34;;;23.03;35.19
16777;BME280;8505;49.456;8.164;2023-08-07T14:03:41;99833.88;;;22.82;34.63
16777;BME280;8505;49.456;8.164;2023-08-07T14:06:09;99844.06;;;23.19;35.41
16777;BME280;8505;49.456;8.164;2023-08-07T14:08:37;99841.91;;;22.77;35.95
16777;BME280;8505;49.456;8.164;2023-08-07T14:11:04;99844.94;;;23.46;34.82
16777;BME280;8505;49.456;8.164;2023-08-07T14:13:32;99850.97;;;22.71;35.25
16777;BME280;8505;49.456;8.164;2023-08-07T14:16:01;99851.78;;;22.22;36.39
16777;BME280;8505;49.456;8.164;2023-08-07T14:18:29;99845.66;;;21.81;37.25
16777;BME280;8505;49.456;8.164;2023-08-07T14:20:57;99852.50;;;22.00;36.12
16777;BME280;8505;49.456;8.164;2023-08-07T14:23:28;99851.09;;;21.98;36.14